This is the latest recevied weather packets stored in our database for station/object BMCB-13. If no packets are shown the sender has not sent any weather packets the latest 10 day(s).
| Time | Temp. | Humidity | Pressure | Rain* | Wind** | Luminosity | Snow |
|---|---|---|---|---|---|---|---|
| 1777303846 | 18.33° C | 36% | 1019.7 hPa | 0 mm | - | 530 W/m² | - |
| 1777300246 | 18.33° C | 41% | 1020.3 hPa | 0 mm | - | 656 W/m² | - |
| 1777299647 | 18.89° C | 42% | 1020.4 hPa | 0 mm | - | 598 W/m² | - |
| 1777296046 | 18.33° C | 40% | 1020.9 hPa | 0 mm | - | 700 W/m² | - |
| 1777291846 | 16.67° C | 48% | 1021.7 hPa | 0 mm | - | 676 W/m² | - |
| 1777290643 | 16.67° C | 47% | 1021.8 hPa | 0 mm | - | 632 W/m² | - |
| 1777287644 | 15.56° C | 50% | 1022.2 hPa | 0 mm | - | 626 W/m² | - |
| 1777281646 | 13.33° C | 56% | 1022.8 hPa | 0 mm | - | 558 W/m² | - |
| 1777277444 | 11.67° C | 63% | 1023.1 hPa | 0 mm | - | 424 W/m² | - |
| 1777269046 | 5.56° C | 89% | 1023.3 hPa | 0 mm | - | 134 W/m² | - |
| 1777267846 | 5° C | 90% | 1023.2 hPa | 0 mm | - | 84 W/m² | - |
| 1777266045 | 3.89° C | 93% | 1023.1 hPa | 0 mm | - | 52 W/m² | - |
| 1777264844 | 3.33° C | 93% | 1023 hPa | 0 mm | - | 16 W/m² | - |
| 1777263647 | 2.78° C | 92% | 1023.1 hPa | 0 mm | - | 4 W/m² | - |
| 1777259446 | 3.33° C | 90% | 1023 hPa | 0 mm | - | 0 W/m² | - |
| 1777254646 | 4.44° C | 86% | 1023.1 hPa | 0 mm | - | 0 W/m² | - |
| 1777253449 | 5.56° C | 80% | 1023 hPa | 0 mm | - | 0 W/m² | - |
| 1777252246 | 5° C | 83% | 1023.2 hPa | 0 mm | - | 0 W/m² | - |
| 1777248044 | 7.78° C | 64% | 1023.3 hPa | 0 mm | - | 0 W/m² | - |
| 1777246844 | 7.78° C | 66% | 1023.4 hPa | 0 mm | - | 0 W/m² | - |
| 1777245046 | 8.33° C | 63% | 1023.3 hPa | 0 mm | - | 0 W/m² | - |
| 1777239651 | 10.56° C | 53% | 1023.1 hPa | 0 mm | - | 0 W/m² | - |
| 1777236050 | 11.67° C | 50% | 1023.2 hPa | 0 mm | - | 0 W/m² | - |
| 1777235449 | 11.67° C | 49% | 1023.2 hPa | 0 mm | - | 0 W/m² | - |
| 1777232452 | 12.22° C | 49% | 1023.1 hPa | 0 mm | - | 0 W/m² | - |
* Rain latest hour (hover to see other rain measurements)
** Current wind speed in m/s (hover to see current wind gust speed)